KHNB/HNB METAR and TAF weather

Enter ICAO airport designator
Station Type Date Time Source
KHNB METAR 2021/02/25 00:56 UTC NOAA

KHNB 250056Z AUTO 34009KT 10SM CLR 11/03 A3008 RMK AO2 SLP188 T01060033


Station Type Date Time Source
KHNB Decoded METAR 2021/02/25 00:56 UTC NOAA

Huntingburg, IN, United States (KHNB) 38-15N 086-57W
Feb 24, 2021 - 07:56 PM EST / 2021.02.25 0056 UTC
Wind: from the NNW (340 degrees) at 10 MPH (9 KT):0
Visibility: 10 mile(s):0
Sky conditions: clear
Temperature: 51.1 F (10.6 C)
Dew Point: 37.9 F (3.3 C)
Relative Humidity: 60%
Pressure (altimeter): 30.08 in. Hg (1018 hPa)
ob: KHNB 250056Z AUTO 34009KT 10SM CLR 11/03 A3008 RMK AO2 SLP188 T01060033
cycle: 1

Station Type Date Time Source
KHNB TAF 2021/02/24 20:24 UTC NOAA

TAF
AMD KHNB 242023Z 2420/2518 28014KT P6SM BKN060
FM242200 32011KT P6SM BKN100
FM250400 35011KT P6SM OVC050
FM250700 36007KT P6SM OVC025

Example: see airport list